sensor_id;sensor_type;location;lat;lon;timestamp;pressure;altitude;pressure_sealevel;temperature;humidity
80414;BME280;69758;52.580;13.068;2023-07-31T00:01:38;100861.59;;;22.79;36.22
80414;BME280;69758;52.580;13.068;2023-07-31T00:04:04;100864.99;;;22.56;36.11
80414;BME280;69758;52.580;13.068;2023-07-31T00:06:28;100866.12;;;22.56;36.04
80414;BME280;69758;52.580;13.068;2023-07-31T00:08:54;100861.56;;;22.64;35.87
80414;BME280;69758;52.580;13.068;2023-07-31T00:11:19;100853.24;;;22.60;35.94
80414;BME280;69758;52.580;13.068;2023-07-31T00:13:44;100855.36;;;22.57;36.01
80414;BME280;69758;52.580;13.068;2023-07-31T00:16:09;100852.51;;;22.49;36.01
80414;BME280;69758;52.580;13.068;2023-07-31T00:18:36;100848.01;;;22.48;36.00
80414;BME280;69758;52.580;13.068;2023-07-31T00:21:01;100847.88;;;22.42;36.07
80414;BME280;69758;52.580;13.068;2023-07-31T00:23:30;100848.34;;;22.63;36.18
80414;BME280;69758;52.580;13.068;2023-07-31T00:25:53;100846.07;;;22.62;36.34
80414;BME280;69758;52.580;13.068;2023-07-31T00:28:16;100842.84;;;22.42;36.32
80414;BME280;69758;52.580;13.068;2023-07-31T00:30:41;100842.93;;;22.47;36.23
80414;BME280;69758;52.580;13.068;2023-07-31T00:35:31;100837.55;;;22.41;36.48
80414;BME280;69758;52.580;13.068;2023-07-31T00:37:58;100836.12;;;22.69;36.44
80414;BME280;69758;52.580;13.068;2023-07-31T00:40:21;100833.74;;;22.68;36.48
80414;BME280;69758;52.580;13.068;2023-07-31T00:42:46;100833.73;;;22.45;36.55
80414;BME280;69758;52.580;13.068;2023-07-31T00:45:12;100835.82;;;22.69;36.50
80414;BME280;69758;52.580;13.068;2023-07-31T00:47:37;100831.32;;;22.48;36.43
80414;BME280;69758;52.580;13.068;2023-07-31T00:50:03;100830.98;;;22.74;36.34
80414;BME280;69758;52.580;13.068;2023-07-31T00:52:29;100830.35;;;22.53;36.46
80414;BME280;69758;52.580;13.068;2023-07-31T00:54:53;100827.64;;;22.80;36.55
80414;BME280;69758;52.580;13.068;2023-07-31T00:57:18;100829.73;;;22.57;36.62
80414;BME280;69758;52.580;13.068;2023-07-31T00:59:42;100829.44;;;22.56;36.67
80414;BME280;69758;52.580;13.068;2023-07-31T01:02:08;100824.45;;;22.57;36.72
80414;BME280;69758;52.580;13.068;2023-07-31T01:04:34;100822.48;;;22.82;36.73
80414;BME280;69758;52.580;13.068;2023-07-31T01:07:04;100826.09;;;22.63;36.73
80414;BME280;69758;52.580;13.068;2023-07-31T01:09:36;100821.90;;;22.65;36.77
80414;BME280;69758;52.580;13.068;2023-07-31T01:11:57;100818.88;;;22.69;36.79
80414;BME280;69758;52.580;13.068;2023-07-31T01:14:21;100824.33;;;22.68;36.86
80414;BME280;69758;52.580;13.068;2023-07-31T01:16:37;100829.30;;;22.72;36.72
80414;BME280;69758;52.580;13.068;2023-07-31T01:19:02;100828.42;;;22.68;36.65
80414;BME280;69758;52.580;13.068;2023-07-31T01:26:21;100825.61;;;22.59;36.69
80414;BME280;69758;52.580;13.068;2023-07-31T01:28:49;100829.63;;;22.56;36.77
80414;BME280;69758;52.580;13.068;2023-07-31T01:31:11;100826.78;;;22.80;36.92
80414;BME280;69758;52.580;13.068;2023-07-31T01:33:33;100826.86;;;22.77;36.92
80414;BME280;69758;52.580;13.068;2023-07-31T01:35:58;100826.78;;;22.78;36.94
80414;BME280;69758;52.580;13.068;2023-07-31T01:38:24;100825.32;;;22.78;36.91
80414;BME280;69758;52.580;13.068;2023-07-31T01:40:51;100819.78;;;22.54;37.03
80414;BME280;69758;52.580;13.068;2023-07-31T01:43:13;100808.91;;;22.54;37.16
80414;BME280;69758;52.580;13.068;2023-07-31T01:45:39;100813.44;;;22.55;37.27
80414;BME280;69758;52.580;13.068;2023-07-31T01:48:04;100815.88;;;22.58;37.28
80414;BME280;69758;52.580;13.068;2023-07-31T01:50:29;100815.56;;;22.55;37.32
80414;BME280;69758;52.580;13.068;2023-07-31T01:52:54;100811.27;;;22.76;37.37
80414;BME280;69758;52.580;13.068;2023-07-31T01:55:19;100807.79;;;22.53;37.32
80414;BME280;69758;52.580;13.068;2023-07-31T01:57:44;100804.28;;;22.54;37.42
80414;BME280;69758;52.580;13.068;2023-07-31T02:00:10;100805.03;;;22.59;37.39
80414;BME280;69758;52.580;13.068;2023-07-31T02:02:34;100798.20;;;22.59;37.45
80414;BME280;69758;52.580;13.068;2023-07-31T02:05:01;100795.46;;;22.61;37.45
80414;BME280;69758;52.580;13.068;2023-07-31T02:07:25;100788.83;;;22.62;37.41
80414;BME280;69758;52.580;13.068;2023-07-31T02:09:50;100790.71;;;22.62;37.39
80414;BME280;69758;52.580;13.068;2023-07-31T02:12:15;100783.73;;;22.83;37.41
80414;BME280;69758;52.580;13.068;2023-07-31T02:14:40;100775.91;;;22.46;37.55
80414;BME280;69758;52.580;13.068;2023-07-31T02:17:06;100773.40;;;22.46;37.52
80414;BME280;69758;52.580;13.068;2023-07-31T02:19:30;100772.12;;;22.68;37.61
80414;BME280;69758;52.580;13.068;2023-07-31T02:21:55;100769.10;;;22.66;37.58
80414;BME280;69758;52.580;13.068;2023-07-31T02:24:20;100771.39;;;22.41;37.63
80414;BME280;69758;52.580;13.068;2023-07-31T02:26:46;100767.18;;;22.44;37.71
80414;BME280;69758;52.580;13.068;2023-07-31T02:29:11;100770.43;;;22.45;37.79
80414;BME280;69758;52.580;13.068;2023-07-31T02:31:36;100774.39;;;22.94;37.71
80414;BME280;69758;52.580;13.068;2023-07-31T02:34:01;100773.21;;;22.45;37.73
80414;BME280;69758;52.580;13.068;2023-07-31T02:36:26;100773.26;;;22.48;37.68
80414;BME280;69758;52.580;13.068;2023-07-31T02:38:51;100769.39;;;22.74;37.70
80414;BME280;69758;52.580;13.068;2023-07-31T02:41:16;100766.38;;;22.56;37.68
80414;BME280;69758;52.580;13.068;2023-07-31T02:43:41;100763.45;;;22.57;37.69
80414;BME280;69758;52.580;13.068;2023-07-31T02:46:07;100759.83;;;22.56;37.79
80414;BME280;69758;52.580;13.068;2023-07-31T02:48:32;100751.70;;;22.56;37.75
80414;BME280;69758;52.580;13.068;2023-07-31T02:50:57;100748.79;;;22.58;37.72
80414;BME280;69758;52.580;13.068;2023-07-31T02:53:22;100746.41;;;22.53;37.73
80414;BME280;69758;52.580;13.068;2023-07-31T02:55:47;100751.55;;;22.76;37.72
80414;BME280;69758;52.580;13.068;2023-07-31T02:58:12;100750.45;;;22.52;37.85
80414;BME280;69758;52.580;13.068;2023-07-31T03:00:42;100751.88;;;23.01;37.87
80414;BME280;69758;52.580;13.068;2023-07-31T03:03:02;100754.53;;;22.76;37.92
80414;BME280;69758;52.580;13.068;2023-07-31T03:05:28;100754.07;;;22.76;37.94
80414;BME280;69758;52.580;13.068;2023-07-31T03:07:52;100753.27;;;22.51;37.86
80414;BME280;69758;52.580;13.068;2023-07-31T03:10:18;100748.87;;;22.73;37.91
80414;BME280;69758;52.580;13.068;2023-07-31T03:12:46;100744.10;;;22.57;37.73
80414;BME280;69758;52.580;13.068;2023-07-31T03:15:09;100741.60;;;22.60;37.73
80414;BME280;69758;52.580;13.068;2023-07-31T03:17:33;100738.25;;;22.35;37.79
80414;BME280;69758;52.580;13.068;2023-07-31T03:19:58;100732.66;;;22.61;37.71
80414;BME280;69758;52.580;13.068;2023-07-31T03:22:23;100730.87;;;22.87;37.70
80414;BME280;69758;52.580;13.068;2023-07-31T03:24:48;100729.15;;;22.88;37.66
80414;BME280;69758;52.580;13.068;2023-07-31T03:27:14;100724.94;;;22.64;37.68
80414;BME280;69758;52.580;13.068;2023-07-31T03:29:38;100718.68;;;22.88;37.66
80414;BME280;69758;52.580;13.068;2023-07-31T03:32:04;100718.22;;;22.62;37.68
80414;BME280;69758;52.580;13.068;2023-07-31T03:34:29;100716.36;;;22.68;37.59
80414;BME280;69758;52.580;13.068;2023-07-31T03:36:54;100716.13;;;22.69;37.56
80414;BME280;69758;52.580;13.068;2023-07-31T03:39:20;100712.93;;;22.71;37.57
80414;BME280;69758;52.580;13.068;2023-07-31T03:41:44;100708.94;;;22.75;37.50
80414;BME280;69758;52.580;13.068;2023-07-31T03:44:09;100705.63;;;22.45;37.50
80414;BME280;69758;52.580;13.068;2023-07-31T03:46:34;100707.26;;;22.87;37.61
80414;BME280;69758;52.580;13.068;2023-07-31T03:48:59;100709.38;;;22.60;37.69
80414;BME280;69758;52.580;13.068;2023-07-31T03:51:24;100709.79;;;22.57;37.67
80414;BME280;69758;52.580;13.068;2023-07-31T03:53:50;100706.72;;;22.80;37.68
80414;BME280;69758;52.580;13.068;2023-07-31T03:56:15;100705.51;;;22.53;37.73
80414;BME280;69758;52.580;13.068;2023-07-31T03:58:40;100702.54;;;22.55;37.78
80414;BME280;69758;52.580;13.068;2023-07-31T04:01:05;100700.67;;;22.52;37.92
80414;BME280;69758;52.580;13.068;2023-07-31T04:03:30;100695.54;;;22.59;37.95
80414;BME280;69758;52.580;13.068;2023-07-31T04:05:55;100694.01;;;22.66;37.86
80414;BME280;69758;52.580;13.068;2023-07-31T04:08:20;100691.09;;;22.67;37.84
80414;BME280;69758;52.580;13.068;2023-07-31T04:10:45;100690.68;;;22.68;37.78
80414;BME280;69758;52.580;13.068;2023-07-31T04:13:11;100687.47;;;22.69;37.76
80414;BME280;69758;52.580;13.068;2023-07-31T04:15:35;100686.98;;;22.73;37.66
80414;BME280;69758;52.580;13.068;2023-07-31T04:18:01;100687.18;;;22.71;37.62
80414;BME280;69758;52.580;13.068;2023-07-31T04:20:25;100690.30;;;22.66;37.57
80414;BME280;69758;52.580;13.068;2023-07-31T04:22:52;100689.99;;;22.81;37.62
80414;BME280;69758;52.580;13.068;2023-07-31T04:25:16;100691.38;;;22.57;37.64
80414;BME280;69758;52.580;13.068;2023-07-31T04:27:41;100684.45;;;22.70;37.63
80414;BME280;69758;52.580;13.068;2023-07-31T04:30:07;100681.72;;;22.24;37.62
80414;BME280;69758;52.580;13.068;2023-07-31T04:32:31;100675.76;;;22.54;37.60
80414;BME280;69758;52.580;13.068;2023-07-31T04:34:56;100676.19;;;22.70;37.63
80414;BME280;69758;52.580;13.068;2023-07-31T04:37:21;100668.96;;;22.76;37.66
80414;BME280;69758;52.580;13.068;2023-07-31T04:39:46;100669.11;;;22.54;37.67
80414;BME280;69758;52.580;13.068;2023-07-31T04:42:12;100673.46;;;22.56;37.67
80414;BME280;69758;52.580;13.068;2023-07-31T04:44:37;100677.65;;;22.58;37.65
80414;BME280;69758;52.580;13.068;2023-07-31T04:47:02;100678.01;;;22.54;37.64
80414;BME280;69758;52.580;13.068;2023-07-31T04:49:27;100680.74;;;22.69;37.71
80414;BME280;69758;52.580;13.068;2023-07-31T04:51:52;100681.56;;;22.37;37.73
80414;BME280;69758;52.580;13.068;2023-07-31T04:54:17;100681.01;;;22.51;37.85
80414;BME280;69758;52.580;13.068;2023-07-31T04:56:42;100679.97;;;22.56;37.86
80414;BME280;69758;52.580;13.068;2023-07-31T04:59:07;100679.40;;;22.37;37.87
80414;BME280;69758;52.580;13.068;2023-07-31T05:01:32;100681.44;;;22.66;37.89
80414;BME280;69758;52.580;13.068;2023-07-31T05:03:57;100681.77;;;22.67;37.95
80414;BME280;69758;52.580;13.068;2023-07-31T05:06:23;100680.31;;;22.43;37.91
80414;BME280;69758;52.580;13.068;2023-07-31T05:08:48;100677.75;;;22.69;37.90
80414;BME280;69758;52.580;13.068;2023-07-31T05:11:13;100677.08;;;22.26;37.80
80414;BME280;69758;52.580;13.068;2023-07-31T05:13:38;100675.51;;;22.81;37.78
80414;BME280;69758;52.580;13.068;2023-07-31T05:16:03;100672.58;;;22.60;37.86
80414;BME280;69758;52.580;13.068;2023-07-31T05:18:28;100670.91;;;22.60;37.88
80414;BME280;69758;52.580;13.068;2023-07-31T05:20:53;100669.11;;;22.65;37.88
80414;BME280;69758;52.580;13.068;2023-07-31T05:23:18;100668.09;;;22.73;37.97
80414;BME280;69758;52.580;13.068;2023-07-31T05:25:43;100666.02;;;22.74;37.99
80414;BME280;69758;52.580;13.068;2023-07-31T05:28:09;100658.80;;;22.71;38.10
80414;BME280;69758;52.580;13.068;2023-07-31T05:30:34;100656.80;;;22.64;38.18
80414;BME280;69758;52.580;13.068;2023-07-31T05:33:00;100652.46;;;22.90;38.17
80414;BME280;69758;52.580;13.068;2023-07-31T05:35:25;100652.04;;;22.66;38.30
80414;BME280;69758;52.580;13.068;2023-07-31T05:37:49;100651.68;;;22.74;38.22
80414;BME280;69758;52.580;13.068;2023-07-31T05:40:15;100651.39;;;22.51;38.13
80414;BME280;69758;52.580;13.068;2023-07-31T05:42:40;100652.53;;;22.53;38.18
80414;BME280;69758;52.580;13.068;2023-07-31T05:45:06;100652.47;;;22.78;38.16
80414;BME280;69758;52.580;13.068;2023-07-31T05:47:30;100650.94;;;22.69;38.19
80414;BME280;69758;52.580;13.068;2023-07-31T05:49:55;100651.64;;;22.67;38.32
80414;BME280;69758;52.580;13.068;2023-07-31T05:52:20;100649.34;;;22.96;38.31
80414;BME280;69758;52.580;13.068;2023-07-31T05:54:45;100646.99;;;22.76;38.33
80414;BME280;69758;52.580;13.068;2023-07-31T05:57:10;100645.66;;;22.82;38.29
80414;BME280;69758;52.580;13.068;2023-07-31T05:59:35;100642.92;;;23.08;38.33
80414;BME280;69758;52.580;13.068;2023-07-31T06:02:00;100641.84;;;22.89;38.32
80414;BME280;69758;52.580;13.068;2023-07-31T06:04:26;100642.90;;;22.89;38.34
80414;BME280;69758;52.580;13.068;2023-07-31T06:06:50;100647.30;;;22.66;38.39
80414;BME280;69758;52.580;13.068;2023-07-31T06:09:15;100647.59;;;22.89;38.37
80414;BME280;69758;52.580;13.068;2023-07-31T06:11:40;100649.72;;;22.86;38.45
80414;BME280;69758;52.580;13.068;2023-07-31T06:14:06;100645.91;;;22.80;38.56
80414;BME280;69758;52.580;13.068;2023-07-31T06:16:31;100644.56;;;22.69;38.59
80414;BME280;69758;52.580;13.068;2023-07-31T06:18:56;100642.53;;;22.89;38.69
80414;BME280;69758;52.580;13.068;2023-07-31T06:21:21;100641.26;;;22.62;38.84
80414;BME280;69758;52.580;13.068;2023-07-31T06:23:46;100641.22;;;22.35;38.97
80414;BME280;69758;52.580;13.068;2023-07-31T06:26:12;100640.76;;;22.31;39.07
80414;BME280;69758;52.580;13.068;2023-07-31T06:28:36;100639.61;;;22.65;39.01
80414;BME280;69758;52.580;13.068;2023-07-31T06:31:01;100637.15;;;22.77;38.94
80414;BME280;69758;52.580;13.068;2023-07-31T06:33:26;100637.33;;;22.48;39.21
80414;BME280;69758;52.580;13.068;2023-07-31T06:35:51;100637.46;;;22.57;39.05
80414;BME280;69758;52.580;13.068;2023-07-31T06:38:22;100638.59;;;22.87;39.00
80414;BME280;69758;52.580;13.068;2023-07-31T06:40:42;100638.68;;;22.60;39.09
80414;BME280;69758;52.580;13.068;2023-07-31T06:43:07;100638.06;;;22.58;39.20
80414;BME280;69758;52.580;13.068;2023-07-31T06:45:32;100639.39;;;22.48;39.36
80414;BME280;69758;52.580;13.068;2023-07-31T06:47:57;100638.58;;;22.71;39.56
80414;BME280;69758;52.580;13.068;2023-07-31T06:50:23;100637.89;;;22.61;39.72
80414;BME280;69758;52.580;13.068;2023-07-31T06:52:47;100638.62;;;22.47;39.67
80414;BME280;69758;52.580;13.068;2023-07-31T06:55:18;100642.60;;;22.62;39.59
80414;BME280;69758;52.580;13.068;2023-07-31T06:57:40;100638.73;;;22.97;39.27
80414;BME280;69758;52.580;13.068;2023-07-31T07:00:03;100641.48;;;23.06;39.21
80414;BME280;69758;52.580;13.068;2023-07-31T07:02:28;100638.98;;;22.88;39.23
80414;BME280;69758;52.580;13.068;2023-07-31T07:04:54;100637.34;;;23.32;39.32
80414;BME280;69758;52.580;13.068;2023-07-31T07:07:19;100640.23;;;22.99;39.43
80414;BME280;69758;52.580;13.068;2023-07-31T07:09:43;100638.35;;;23.03;39.45
80414;BME280;69758;52.580;13.068;2023-07-31T07:12:09;100637.77;;;23.06;39.39
80414;BME280;69758;52.580;13.068;2023-07-31T07:14:36;100638.23;;;23.03;39.43
80414;BME280;69758;52.580;13.068;2023-07-31T07:17:00;100637.44;;;22.79;39.52
80414;BME280;69758;52.580;13.068;2023-07-31T07:19:26;100637.59;;;22.87;39.38
80414;BME280;69758;52.580;13.068;2023-07-31T07:21:48;100641.65;;;23.01;39.25
80414;BME280;69758;52.580;13.068;2023-07-31T07:24:13;100636.73;;;22.76;39.81
80414;BME280;69758;52.580;13.068;2023-07-31T07:26:38;100637.20;;;22.44;39.96
80414;BME280;69758;52.580;13.068;2023-07-31T07:29:07;100637.94;;;22.76;39.89
80414;BME280;69758;52.580;13.068;2023-07-31T07:31:28;100635.08;;;22.93;39.69
80414;BME280;69758;52.580;13.068;2023-07-31T07:33:53;100634.96;;;22.89;39.85
80414;BME280;69758;52.580;13.068;2023-07-31T07:36:19;100632.27;;;23.00;39.71
80414;BME280;69758;52.580;13.068;2023-07-31T07:38:52;100632.02;;;22.79;39.81
80414;BME280;69758;52.580;13.068;2023-07-31T07:41:09;100627.75;;;22.73;39.66
80414;BME280;69758;52.580;13.068;2023-07-31T07:43:34;100626.14;;;23.14;39.48
80414;BME280;69758;52.580;13.068;2023-07-31T07:45:59;100626.31;;;23.04;39.54
80414;BME280;69758;52.580;13.068;2023-07-31T07:48:25;100626.07;;;23.23;39.49
80414;BME280;69758;52.580;13.068;2023-07-31T07:50:50;100624.85;;;23.08;39.45
80414;BME280;69758;52.580;13.068;2023-07-31T07:53:15;100624.97;;;23.13;39.41
80414;BME280;69758;52.580;13.068;2023-07-31T07:55:40;100619.96;;;23.18;39.43
80414;BME280;69758;52.580;13.068;2023-07-31T07:58:05;100613.23;;;23.41;39.28
80414;BME280;69758;52.580;13.068;2023-07-31T08:00:30;100613.21;;;23.31;39.44
80414;BME280;69758;52.580;13.068;2023-07-31T08:02:57;100612.82;;;22.89;39.57
80414;BME280;69758;52.580;13.068;2023-07-31T08:05:25;100613.40;;;22.68;39.99
80414;BME280;69758;52.580;13.068;2023-07-31T08:07:45;100616.31;;;22.60;40.34
80414;BME280;69758;52.580;13.068;2023-07-31T08:10:12;100616.23;;;22.63;39.97
80414;BME280;69758;52.580;13.068;2023-07-31T08:12:36;100614.98;;;23.09;39.80
80414;BME280;69758;52.580;13.068;2023-07-31T08:15:00;100610.41;;;23.13;39.89
80414;BME280;69758;52.580;13.068;2023-07-31T08:17:27;100607.79;;;22.97;39.95
80414;BME280;69758;52.580;13.068;2023-07-31T08:19:51;100604.03;;;23.00;39.98
80414;BME280;69758;52.580;13.068;2023-07-31T08:22:17;100605.48;;;22.72;40.00
80414;BME280;69758;52.580;13.068;2023-07-31T08:24:43;100605.01;;;23.10;39.85
80414;BME280;69758;52.580;13.068;2023-07-31T08:27:06;100604.10;;;22.84;39.86
80414;BME280;69758;52.580;13.068;2023-07-31T08:29:31;100604.16;;;22.73;40.04
80414;BME280;69758;52.580;13.068;2023-07-31T08:31:56;100599.29;;;22.97;39.80
80414;BME280;69758;52.580;13.068;2023-07-31T08:34:22;100597.56;;;22.95;39.54
80414;BME280;69758;52.580;13.068;2023-07-31T08:36:46;100598.27;;;23.33;39.43
80414;BME280;69758;52.580;13.068;2023-07-31T08:39:12;100597.02;;;23.23;39.68
80414;BME280;69758;52.580;13.068;2023-07-31T08:44:02;100597.73;;;23.22;39.90
80414;BME280;69758;52.580;13.068;2023-07-31T08:46:27;100596.36;;;23.31;40.11
80414;BME280;69758;52.580;13.068;2023-07-31T08:48:52;100598.10;;;22.82;40.32
80414;BME280;69758;52.580;13.068;2023-07-31T08:51:17;100596.68;;;22.91;40.52
80414;BME280;69758;52.580;13.068;2023-07-31T08:53:42;100593.95;;;23.08;40.71
80414;BME280;69758;52.580;13.068;2023-07-31T08:56:07;100594.81;;;23.00;40.99
80414;BME280;69758;52.580;13.068;2023-07-31T08:58:32;100594.57;;;22.85;40.95
80414;BME280;69758;52.580;13.068;2023-07-31T09:00:57;100595.24;;;22.95;40.75
80414;BME280;69758;52.580;13.068;2023-07-31T09:03:24;100595.68;;;22.93;40.68
80414;BME280;69758;52.580;13.068;2023-07-31T09:05:47;100598.87;;;22.71;40.52
80414;BME280;69758;52.580;13.068;2023-07-31T09:08:18;100599.67;;;22.98;40.50
80414;BME280;69758;52.580;13.068;2023-07-31T09:10:41;100600.36;;;22.87;40.39
80414;BME280;69758;52.580;13.068;2023-07-31T09:13:02;100596.34;;;23.11;40.45
80414;BME280;69758;52.580;13.068;2023-07-31T09:15:28;100597.01;;;22.58;40.73
80414;BME280;69758;52.580;13.068;2023-07-31T09:17:59;100596.99;;;23.07;40.66
80414;BME280;69758;52.580;13.068;2023-07-31T09:20:21;100595.73;;;22.84;40.56
80414;BME280;69758;52.580;13.068;2023-07-31T09:22:54;100594.10;;;22.57;40.27
80414;BME280;69758;52.580;13.068;2023-07-31T09:25:17;100591.61;;;22.86;40.15
80414;BME280;69758;52.580;13.068;2023-07-31T09:27:56;100590.64;;;22.74;39.94
80414;BME280;69758;52.580;13.068;2023-07-31T09:30:04;100585.73;;;22.77;39.87
80414;BME280;69758;52.580;13.068;2023-07-31T09:32:25;100585.82;;;23.21;39.64
80414;BME280;69758;52.580;13.068;2023-07-31T09:34:53;100583.79;;;23.18;39.67
80414;BME280;69758;52.580;13.068;2023-07-31T09:37:16;100586.19;;;23.22;39.68
80414;BME280;69758;52.580;13.068;2023-07-31T09:39:49;100584.34;;;23.23;39.57
80414;BME280;69758;52.580;13.068;2023-07-31T09:42:05;100583.96;;;23.16;39.61
80414;BME280;69758;52.580;13.068;2023-07-31T09:44:41;100582.35;;;23.14;39.67
80414;BME280;69758;52.580;13.068;2023-07-31T09:47:04;100580.67;;;23.17;39.67
80414;BME280;69758;52.580;13.068;2023-07-31T09:49:19;100578.49;;;23.32;39.79
80414;BME280;69758;52.580;13.068;2023-07-31T09:51:46;100575.92;;;23.04;39.84
80414;BME280;69758;52.580;13.068;2023-07-31T09:54:24;100575.49;;;23.30;39.84
80414;BME280;69758;52.580;13.068;2023-07-31T09:56:41;100574.06;;;23.09;39.81
80414;BME280;69758;52.580;13.068;2023-07-31T10:01:25;100571.38;;;23.26;39.90
80414;BME280;69758;52.580;13.068;2023-07-31T10:04:01;100577.35;;;23.11;40.10
80414;BME280;69758;52.580;13.068;2023-07-31T10:06:16;100574.66;;;22.73;40.32
80414;BME280;69758;52.580;13.068;2023-07-31T10:09:04;100572.54;;;23.13;40.56
80414;BME280;69758;52.580;13.068;2023-07-31T10:11:43;100568.10;;;22.74;40.44
80414;BME280;69758;52.580;13.068;2023-07-31T10:13:56;100564.93;;;23.07;40.45
80414;BME280;69758;52.580;13.068;2023-07-31T10:15:59;100563.54;;;23.12;40.13
80414;BME280;69758;52.580;13.068;2023-07-31T10:21:38;100564.16;;;22.91;40.66
80414;BME280;69758;52.580;13.068;2023-07-31T10:23:18;100560.40;;;22.95;40.55
80414;BME280;69758;52.580;13.068;2023-07-31T10:25:35;100556.81;;;22.77;40.73
80414;BME280;69758;52.580;13.068;2023-07-31T10:28:17;100550.80;;;23.24;40.44
80414;BME280;69758;52.580;13.068;2023-07-31T10:30:29;100546.57;;;22.91;40.70
80414;BME280;69758;52.580;13.068;2023-07-31T10:32:53;100539.96;;;23.11;40.62
80414;BME280;69758;52.580;13.068;2023-07-31T10:37:41;100536.50;;;22.86;41.30
80414;BME280;69758;52.580;13.068;2023-07-31T10:42:32;100527.21;;;23.48;41.70
80414;BME280;69758;52.580;13.068;2023-07-31T10:44:57;100522.76;;;23.16;42.13
80414;BME280;69758;52.580;13.068;2023-07-31T10:47:20;100523.27;;;23.28;42.16
80414;BME280;69758;52.580;13.068;2023-07-31T10:49:46;100528.25;;;23.49;41.92
80414;BME280;69758;52.580;13.068;2023-07-31T10:52:11;100522.67;;;23.60;41.38
80414;BME280;69758;52.580;13.068;2023-07-31T10:54:35;100517.24;;;23.87;41.43
80414;BME280;69758;52.580;13.068;2023-07-31T10:57:00;100516.89;;;24.06;41.01
80414;BME280;69758;52.580;13.068;2023-07-31T10:59:26;100520.20;;;23.82;40.51
80414;BME280;69758;52.580;13.068;2023-07-31T11:01:51;100513.23;;;24.02;40.60
80414;BME280;69758;52.580;13.068;2023-07-31T11:04:22;100513.22;;;23.65;40.42
80414;BME280;69758;52.580;13.068;2023-07-31T11:09:06;100497.93;;;24.20;39.67
80414;BME280;69758;52.580;13.068;2023-07-31T11:11:31;100501.21;;;23.92;39.59
80414;BME280;69758;52.580;13.068;2023-07-31T11:13:56;100505.37;;;23.97;39.37
80414;BME280;69758;52.580;13.068;2023-07-31T11:16:22;100508.97;;;24.00;39.13
80414;BME280;69758;52.580;13.068;2023-07-31T11:18:48;100510.62;;;24.14;39.02
80414;BME280;69758;52.580;13.068;2023-07-31T11:21:12;100512.04;;;23.93;39.05
80414;BME280;69758;52.580;13.068;2023-07-31T11:23:37;100511.05;;;24.15;38.86
80414;BME280;69758;52.580;13.068;2023-07-31T11:26:01;100515.67;;;23.74;38.89
80414;BME280;69758;52.580;13.068;2023-07-31T11:28:31;100515.07;;;24.29;38.51
80414;BME280;69758;52.580;13.068;2023-07-31T11:30:51;100514.99;;;23.93;38.56
80414;BME280;69758;52.580;13.068;2023-07-31T11:33:16;100514.30;;;23.80;38.25
80414;BME280;69758;52.580;13.068;2023-07-31T11:35:43;100516.59;;;23.69;38.12
80414;BME280;69758;52.580;13.068;2023-07-31T11:38:07;100513.98;;;23.79;38.22
80414;BME280;69758;52.580;13.068;2023-07-31T11:40:42;100512.18;;;23.47;37.71
80414;BME280;69758;52.580;13.068;2023-07-31T11:42:57;100508.88;;;23.21;37.88
80414;BME280;69758;52.580;13.068;2023-07-31T11:45:25;100510.65;;;23.30;38.00
80414;BME280;69758;52.580;13.068;2023-07-31T11:47:47;100507.68;;;23.47;38.28
80414;BME280;69758;52.580;13.068;2023-07-31T11:50:12;100510.90;;;23.42;38.08
80414;BME280;69758;52.580;13.068;2023-07-31T11:52:40;100515.97;;;23.41;38.12
80414;BME280;69758;52.580;13.068;2023-07-31T11:55:02;100511.69;;;23.50;38.15
80414;BME280;69758;52.580;13.068;2023-07-31T11:57:27;100513.43;;;23.53;37.86
80414;BME280;69758;52.580;13.068;2023-07-31T11:59:52;100509.64;;;23.65;38.04
80414;BME280;69758;52.580;13.068;2023-07-31T12:02:18;100508.51;;;23.62;38.24
80414;BME280;69758;52.580;13.068;2023-07-31T12:04:42;100505.81;;;23.77;38.13
80414;BME280;69758;52.580;13.068;2023-07-31T12:07:09;100501.46;;;23.88;38.16
80414;BME280;69758;52.580;13.068;2023-07-31T12:09:33;100498.01;;;23.63;37.88
80414;BME280;69758;52.580;13.068;2023-07-31T12:11:58;100489.62;;;23.50;37.83
80414;BME280;69758;52.580;13.068;2023-07-31T12:14:24;100495.14;;;23.44;37.91
80414;BME280;69758;52.580;13.068;2023-07-31T12:16:53;100502.91;;;23.41;37.86
80414;BME280;69758;52.580;13.068;2023-07-31T12:19:13;100505.78;;;23.57;38.15
80414;BME280;69758;52.580;13.068;2023-07-31T12:21:38;100506.67;;;23.67;38.74
80414;BME280;69758;52.580;13.068;2023-07-31T12:24:04;100499.18;;;23.22;39.28
80414;BME280;69758;52.580;13.068;2023-07-31T12:26:34;100499.33;;;23.58;39.09
80414;BME280;69758;52.580;13.068;2023-07-31T12:28:54;100500.47;;;23.84;38.87
80414;BME280;69758;52.580;13.068;2023-07-31T12:31:21;100500.82;;;23.83;39.18
80414;BME280;69758;52.580;13.068;2023-07-31T12:33:44;100499.93;;;24.00;38.94
80414;BME280;69758;52.580;13.068;2023-07-31T12:36:10;100496.49;;;24.19;38.76
80414;BME280;69758;52.580;13.068;2023-07-31T12:38:33;100490.21;;;24.11;38.87
80414;BME280;69758;52.580;13.068;2023-07-31T12:40:58;100484.43;;;24.19;38.71
80414;BME280;69758;52.580;13.068;2023-07-31T12:43:24;100484.13;;;24.14;38.65
80414;BME280;69758;52.580;13.068;2023-07-31T12:45:49;100482.83;;;24.15;38.74
80414;BME280;69758;52.580;13.068;2023-07-31T12:48:14;100480.65;;;24.26;38.93
80414;BME280;69758;52.580;13.068;2023-07-31T12:50:39;100480.59;;;24.33;39.02